Time;durP1;ratioP1;P1;durP2;ratioP2;P2;SDS_P1;SDS_P2;PMS_P1;PMS_P2;Temp;Humidity;BMP_temperature;BMP_pressure;BME280_temperature;BME280_humidity;BME280_pressure;Samples;Min_cycle;Max_cycle;Signal;HPM_P1;HPM_P2
2022/01/03 00:00:28;;;;;;;8.98;1.48;;;8.50;99.90;;;;;;5011890;28;20045;-48
2022/01/03 00:02:56;;;;;;;15.60;2.63;;;8.50;99.90;;;;;;5011378;28;20042;-52
2022/01/03 00:05:22;;;;;;;8.75;1.95;;;8.60;99.90;;;;;;5011794;28;20084;-50
2022/01/03 00:07:48;;;;;;;7.65;1.77;;;8.60;99.90;;;;;;5011639;28;20073;-51
2022/01/03 00:10:15;;;;;;;7.90;1.50;;;8.60;99.90;;;;;;5011719;28;20087;-49
2022/01/03 00:12:42;;;;;;;8.45;1.48;;;8.60;99.90;;;;;;5011424;28;20042;-51
2022/01/03 00:15:11;;;;;;;11.30;1.73;;;8.60;99.90;;;;;;5011296;28;20168;-63
2022/01/03 00:17:37;;;;;;;12.32;1.90;;;8.70;99.90;;;;;;5011182;28;20034;-63
2022/01/03 00:20:05;;;;;;;12.27;2.60;;;8.80;99.90;;;;;;5011507;28;20038;-63
2022/01/03 00:22:40;;;;;;;12.85;2.80;;;8.80;99.90;;;;;;5011196;28;20437;-63
2022/01/03 00:25:15;;;;;;;12.32;2.38;;;8.80;99.90;;;;;;5011239;28;20438;-62
2022/01/03 00:27:51;;;;;;;11.82;2.17;;;8.80;99.90;;;;;;5011164;28;20400;-63
2022/01/03 00:30:21;;;;;;;16.77;2.15;;;8.90;99.90;;;;;;5011323;28;20062;-63
2022/01/03 00:32:50;;;;;;;9.77;2.92;;;8.90;99.90;;;;;;5011239;28;20121;-63
2022/01/03 00:35:16;;;;;;;14.03;1.97;;;8.90;99.90;;;;;;5010991;28;20453;-63
2022/01/03 00:37:44;;;;;;;14.43;2.80;;;9.00;99.90;;;;;;5011391;28;20048;-62
2022/01/03 00:40:10;;;;;;;13.20;2.30;;;9.00;99.90;;;;;;5010873;28;20042;-63
2022/01/03 00:42:36;;;;;;;15.45;2.42;;;9.00;99.90;;;;;;5009585;28;20079;-62
2022/01/03 00:45:03;;;;;;;10.63;2.28;;;9.10;99.90;;;;;;5011022;28;20046;-62
2022/01/03 00:47:32;;;;;;;14.30;2.42;;;9.10;99.90;;;;;;5010988;28;20396;-62
2022/01/03 00:50:04;;;;;;;17.00;2.80;;;9.10;99.90;;;;;;5010896;28;20361;-63
2022/01/03 00:52:29;;;;;;;13.93;2.22;;;9.00;99.90;;;;;;5010769;28;20037;-63
2022/01/03 00:54:55;;;;;;;17.13;2.42;;;9.00;99.90;;;;;;5009313;28;20056;-63
2022/01/03 00:57:45;;;;;;;19.77;4.00;;;9.10;99.90;;;;;;5009898;28;20126;-63
2022/01/03 01:00:11;;;;;;;15.75;3.65;;;9.10;99.90;;;;;;5010600;28;20046;-63
2022/01/03 01:02:44;;;;;;;19.90;2.85;;;9.00;99.90;;;;;;5010714;28;20041;-62
2022/01/03 01:05:09;;;;;;;17.40;3.28;;;9.00;99.90;;;;;;5010616;28;20456;-63
2022/01/03 01:07:38;;;;;;;20.10;3.13;;;9.10;99.90;;;;;;5010277;28;20042;-63
2022/01/03 01:10:06;;;;;;;16.63;3.05;;;9.10;99.90;;;;;;5010432;28;20512;-63
2022/01/03 01:12:33;;;;;;;19.83;3.63;;;9.10;99.90;;;;;;5010555;28;20048;-63
2022/01/03 01:14:59;;;;;;;16.33;3.20;;;9.00;99.90;;;;;;5010240;28;20480;-63
2022/01/03 01:17:28;;;;;;;21.77;3.10;;;9.10;99.90;;;;;;5010138;28;20079;-63
2022/01/03 01:19:56;;;;;;;18.73;3.70;;;9.10;99.90;;;;;;5010273;28;20048;-62
2022/01/03 01:22:22;;;;;;;18.52;3.78;;;9.00;99.90;;;;;;5010305;28;20352;-63
2022/01/03 01:25:11;;;;;;;24.15;4.10;;;9.10;99.90;;;;;;5010392;28;20034;-63
2022/01/03 01:27:47;;;;;;;17.55;3.80;;;9.10;99.90;;;;;;5010089;28;20121;-63
2022/01/03 01:30:13;;;;;;;30.30;4.93;;;9.10;99.90;;;;;;5009907;28;20112;-62
2022/01/03 01:32:47;;;;;;;20.40;4.00;;;9.20;99.90;;;;;;5010075;28;20041;-63
2022/01/03 01:35:14;;;;;;;22.60;4.13;;;9.20;99.90;;;;;;5009941;28;20400;-63
2022/01/03 01:37:42;;;;;;;21.75;3.63;;;9.20;99.90;;;;;;5010115;28;20033;-63
2022/01/03 01:40:08;;;;;;;17.73;3.27;;;9.20;99.90;;;;;;5010065;28;20049;-62
2022/01/03 01:42:36;;;;;;;18.85;3.40;;;9.20;99.90;;;;;;5009910;28;20068;-62
2022/01/03 01:45:08;;;;;;;24.48;3.85;;;9.20;99.90;;;;;;5008956;28;20046;-62
2022/01/03 01:47:39;;;;;;;20.33;3.75;;;9.20;99.90;;;;;;5010074;28;20097;-63
2022/01/03 01:50:07;;;;;;;25.35;3.65;;;9.20;99.90;;;;;;5010001;28;20042;-63
2022/01/03 01:52:35;;;;;;;24.10;3.28;;;9.20;99.90;;;;;;5010183;28;20188;-63
2022/01/03 01:55:06;;;;;;;25.38;4.47;;;9.30;99.90;;;;;;5010008;28;20045;-62
2022/01/03 01:57:56;;;;;;;29.45;3.75;;;9.30;99.90;;;;;;5009689;28;20030;-62
2022/01/03 02:00:22;;;;;;;25.45;3.88;;;9.30;99.90;;;;;;5009708;28;20034;-62
2022/01/03 02:03:15;;;;;;;18.10;4.10;;;9.30;99.90;;;;;;5009772;28;20044;-62
2022/01/03 02:05:47;;;;;;;21.92;3.47;;;9.30;99.90;;;;;;5009617;28;20473;-62
2022/01/03 02:08:14;;;;;;;17.60;3.45;;;9.20;99.90;;;;;;5008919;28;20125;-62
2022/01/03 02:10:42;;;;;;;19.58;3.83;;;9.20;99.90;;;;;;5009404;28;20131;-63
2022/01/03 02:13:08;;;;;;;22.40;3.80;;;9.30;99.90;;;;;;5009647;28;20091;-62
2022/01/03 02:15:36;;;;;;;20.55;3.55;;;9.30;99.90;;;;;;5009380;28;20053;-62
2022/01/03 02:18:03;;;;;;;21.92;3.58;;;9.40;99.90;;;;;;5009510;28;20108;-62
2022/01/03 02:20:30;;;;;;;19.08;4.30;;;9.40;99.90;;;;;;5009362;28;20484;-62
2022/01/03 02:22:57;;;;;;;25.85;4.13;;;9.40;99.90;;;;;;5008183;28;20395;-62
2022/01/03 02:25:24;;;;;;;22.25;4.53;;;9.40;99.90;;;;;;5009364;28;20046;-62
2022/01/03 02:27:52;;;;;;;19.15;5.15;;;9.40;99.90;;;;;;5009500;28;20103;-63
2022/01/03 02:30:22;;;;;;;23.23;4.32;;;9.40;99.90;;;;;;5009189;28;20103;-62
2022/01/03 02:32:48;;;;;;;26.10;4.15;;;9.40;99.90;;;;;;5009546;28;20086;-63
2022/01/03 02:35:14;;;;;;;22.15;5.20;;;9.40;99.90;;;;;;5009073;28;20088;-62
2022/01/03 02:37:42;;;;;;;20.92;4.05;;;9.40;99.90;;;;;;5009341;28;20038;-62
2022/01/03 02:40:10;;;;;;;24.50;3.67;;;9.40;99.90;;;;;;5009640;28;20038;-62
2022/01/03 02:42:36;;;;;;;21.75;3.83;;;9.40;99.90;;;;;;5009478;28;20145;-62
2022/01/03 02:45:04;;;;;;;21.58;4.20;;;9.40;99.90;;;;;;5009279;28;20038;-63
2022/01/03 02:47:29;;;;;;;24.85;6.00;;;9.40;99.90;;;;;;5009195;28;20045;-62
2022/01/03 02:49:55;;;;;;;22.92;3.05;;;9.30;99.90;;;;;;5009479;28;20049;-62
2022/01/03 02:52:21;;;;;;;27.45;4.75;;;9.20;99.90;;;;;;5009063;28;20069;-62
2022/01/03 02:54:50;;;;;;;15.63;4.22;;;9.30;99.90;;;;;;5008970;28;20037;-62
2022/01/03 02:57:22;;;;;;;23.55;4.80;;;9.30;99.90;;;;;;5009116;28;20045;-63
2022/01/03 02:59:55;;;;;;;22.60;5.28;;;9.30;99.90;;;;;;5008821;28;20045;-61
2022/01/03 03:02:23;;;;;;;23.83;4.28;;;9.30;99.90;;;;;;5008784;28;20440;-62
2022/01/03 03:05:08;;;;;;;30.13;4.65;;;9.30;99.90;;;;;;5009014;28;20057;-62
2022/01/03 03:07:34;;;;;;;22.95;4.22;;;9.30;99.90;;;;;;5008943;28;20075;-62
2022/01/03 03:10:00;;;;;;;30.60;4.70;;;9.30;99.90;;;;;;5008799;28;20062;-61
2022/01/03 03:12:27;;;;;;;19.55;3.72;;;9.20;99.90;;;;;;5008701;28;20042;-63
2022/01/03 03:14:53;;;;;;;21.48;4.05;;;9.20;99.90;;;;;;5008564;28;20034;-62
2022/01/03 03:17:19;;;;;;;20.35;4.00;;;9.20;99.90;;;;;;5008900;28;20033;-62
2022/01/03 03:19:55;;;;;;;25.55;4.07;;;9.10;99.90;;;;;;5009325;28;20461;-62
2022/01/03 03:22:23;;;;;;;27.80;5.43;;;9.10;99.90;;;;;;5012110;28;20049;-62
2022/01/03 03:24:49;;;;;;;30.77;5.30;;;9.00;99.90;;;;;;5010923;28;20049;-62
2022/01/03 03:27:16;;;;;;;25.58;4.80;;;9.00;99.90;;;;;;5011941;28;20091;-62
2022/01/03 03:29:50;;;;;;;18.60;4.32;;;9.00;99.90;;;;;;5012118;28;20038;-62
2022/01/03 03:32:17;;;;;;;28.58;5.18;;;9.00;99.90;;;;;;5011775;28;20509;-63
2022/01/03 03:34:45;;;;;;;26.67;4.85;;;8.90;99.90;;;;;;5012172;28;20038;-62
2022/01/03 03:37:11;;;;;;;26.40;4.45;;;8.90;99.90;;;;;;5012168;28;20056;-62
2022/01/03 03:39:39;;;;;;;19.98;4.63;;;9.00;99.90;;;;;;5011773;28;20121;-62
2022/01/03 03:42:06;;;;;;;25.00;5.15;;;8.90;99.90;;;;;;5012256;28;20042;-62
2022/01/03 03:44:33;;;;;;;18.80;4.95;;;8.90;99.90;;;;;;5012311;28;20492;-62
2022/01/03 03:46:59;;;;;;;26.52;4.68;;;8.90;99.90;;;;;;5012004;28;20053;-61
2022/01/03 03:49:24;;;;;;;27.45;4.95;;;8.90;99.90;;;;;;5011677;28;20049;-61
2022/01/03 03:51:50;;;;;;;29.45;4.93;;;8.90;99.90;;;;;;5011592;28;20052;-61
2022/01/03 03:54:16;;;;;;;30.10;4.28;;;8.90;99.90;;;;;;5011534;28;20112;-62
2022/01/03 03:56:42;;;;;;;30.20;4.60;;;8.80;99.90;;;;;;5011561;28;20095;-62
2022/01/03 03:59:07;;;;;;;17.65;3.63;;;8.80;99.90;;;;;;5011677;28;20045;-63
2022/01/03 04:01:33;;;;;;;21.02;3.67;;;8.80;99.90;;;;;;5011640;28;20046;-62
2022/01/03 04:03:58;;;;;;;25.50;5.32;;;8.80;99.90;;;;;;5011488;28;20038;-62
2022/01/03 04:06:24;;;;;;;25.13;4.03;;;8.70;99.90;;;;;;5011478;28;20397;-62
2022/01/03 04:08:50;;;;;;;27.50;4.38;;;8.70;99.90;;;;;;5011285;28;20073;-62
2022/01/03 04:11:16;;;;;;;32.20;4.70;;;8.70;99.90;;;;;;5011159;28;20042;-62
2022/01/03 04:13:42;;;;;;;32.92;4.10;;;8.70;99.90;;;;;;5011388;28;20117;-62
2022/01/03 04:16:08;;;;;;;29.67;4.55;;;8.70;99.90;;;;;;5011357;28;20073;-62
2022/01/03 04:18:34;;;;;;;27.70;4.65;;;8.70;99.90;;;;;;5011311;28;20053;-62
2022/01/03 04:21:00;;;;;;;31.42;5.30;;;8.80;99.90;;;;;;5011278;28;20034;-63
2022/01/03 04:23:26;;;;;;;30.15;5.13;;;8.80;99.90;;;;;;5011388;28;20034;-62
2022/01/03 04:25:51;;;;;;;29.40;6.32;;;8.80;99.90;;;;;;5011515;28;20449;-62
2022/01/03 04:28:18;;;;;;;26.80;4.18;;;8.80;99.90;;;;;;5011457;28;20862;-62
2022/01/03 04:30:44;;;;;;;35.65;5.85;;;9.00;99.90;;;;;;5010899;28;20546;-62
2022/01/03 04:33:11;;;;;;;26.75;5.13;;;8.90;99.90;;;;;;5010169;28;20082;-62
2022/01/03 04:35:38;;;;;;;31.58;6.07;;;8.90;99.90;;;;;;5010961;28;20050;-62
2022/01/03 04:38:04;;;;;;;31.90;4.57;;;8.90;99.90;;;;;;5010858;28;20045;-62
2022/01/03 04:40:30;;;;;;;32.67;6.35;;;8.90;99.90;;;;;;5009940;28;20425;-62
2022/01/03 04:42:55;;;;;;;26.30;5.22;;;8.90;99.90;;;;;;5011000;28;20038;-62
2022/01/03 04:45:21;;;;;;;26.77;4.53;;;8.90;99.90;;;;;;5010814;28;20125;-62
2022/01/03 04:47:47;;;;;;;40.80;6.40;;;8.90;99.90;;;;;;5010805;28;20141;-62
2022/01/03 04:50:12;;;;;;;30.75;5.85;;;8.90;99.90;;;;;;5010900;28;20495;-62
2022/01/03 04:52:38;;;;;;;32.78;5.43;;;8.90;99.90;;;;;;5010598;28;20400;-62
2022/01/03 04:55:04;;;;;;;29.40;5.90;;;8.90;99.90;;;;;;5010538;28;20453;-62
2022/01/03 04:57:30;;;;;;;30.85;6.75;;;9.00;99.90;;;;;;5010658;28;20430;-63
2022/01/03 04:59:56;;;;;;;33.10;5.57;;;9.00;99.90;;;;;;5010581;28;20045;-62
2022/01/03 05:02:21;;;;;;;38.95;5.93;;;8.90;99.90;;;;;;5010487;28;20046;-62
2022/01/03 05:04:47;;;;;;;30.73;5.53;;;9.00;99.90;;;;;;5010544;28;20034;-62
2022/01/03 05:07:13;;;;;;;26.98;4.68;;;9.00;99.90;;;;;;5010316;28;20042;-62
2022/01/03 05:09:38;;;;;;;23.55;5.13;;;9.00;99.90;;;;;;5010436;28;20472;-63
2022/01/03 05:12:05;;;;;;;30.70;5.80;;;8.90;99.90;;;;;;5010636;28;20073;-62
2022/01/03 05:14:30;;;;;;;33.40;5.28;;;8.90;99.90;;;;;;5010817;28;20042;-62
2022/01/03 05:16:57;;;;;;;38.70;6.55;;;9.00;99.90;;;;;;5010493;28;20551;-62
2022/01/03 05:19:26;;;;;;;23.65;4.60;;;9.00;99.90;;;;;;5010606;28;20073;-62
2022/01/03 05:21:52;;;;;;;32.60;5.57;;;9.00;99.90;;;;;;5010277;28;20086;-62
2022/01/03 05:24:18;;;;;;;32.50;5.60;;;9.00;99.90;;;;;;5009582;28;20517;-62
2022/01/03 05:26:44;;;;;;;29.17;5.53;;;8.90;99.90;;;;;;5010636;28;20054;-61
2022/01/03 05:29:09;;;;;;;43.67;5.70;;;9.00;99.90;;;;;;5010288;28;20095;-62
2022/01/03 05:31:35;;;;;;;34.13;5.68;;;8.90;99.90;;;;;;5010100;28;20053;-62
2022/01/03 05:34:01;;;;;;;36.47;6.03;;;8.90;99.90;;;;;;5010080;28;20046;-62
2022/01/03 05:36:27;;;;;;;32.75;5.95;;;8.80;99.90;;;;;;5009943;28;20064;-62
2022/01/03 05:38:53;;;;;;;30.15;5.65;;;8.90;99.90;;;;;;5010252;28;20042;-62
2022/01/03 05:41:19;;;;;;;30.20;5.15;;;8.90;99.90;;;;;;5010157;28;20037;-62
2022/01/03 05:43:45;;;;;;;31.63;6.03;;;8.90;99.90;;;;;;5010096;28;20038;-62
2022/01/03 05:46:11;;;;;;;32.90;6.25;;;8.90;99.90;;;;;;5009943;28;20045;-62
2022/01/03 05:48:37;;;;;;;30.90;5.88;;;8.90;99.90;;;;;;5009879;28;20046;-62
2022/01/03 05:51:03;;;;;;;30.17;4.90;;;8.90;99.90;;;;;;5009815;28;20048;-61
2022/01/03 05:53:30;;;;;;;32.88;5.88;;;8.90;99.90;;;;;;5009956;28;20041;-62
2022/01/03 05:55:57;;;;;;;26.42;5.32;;;8.90;99.90;;;;;;5009518;28;20077;-62
2022/01/03 05:58:22;;;;;;;34.88;6.25;;;8.90;99.90;;;;;;5009804;28;20034;-62
2022/01/03 06:00:48;;;;;;;31.80;5.63;;;8.90;99.90;;;;;;5009708;28;20071;-63
2022/01/03 06:03:15;;;;;;;31.10;5.65;;;8.90;99.90;;;;;;5009737;28;20056;-63
2022/01/03 06:06:03;;;;;;;27.17;6.00;;;9.00;99.90;;;;;;5009574;28;20049;-62
2022/01/03 06:08:26;;;;;;;32.75;5.88;;;8.90;99.90;;;;;;5009557;28;20491;-62
2022/01/03 06:10:53;;;;;;;37.03;5.57;;;8.90;99.90;;;;;;5009743;28;20053;-62
2022/01/03 06:13:19;;;;;;;32.25;5.85;;;8.80;99.90;;;;;;5010278;28;20077;-61
2022/01/03 06:15:45;;;;;;;26.52;5.38;;;8.80;99.90;;;;;;5009670;28;20045;-62
2022/01/03 06:18:13;;;;;;;32.10;6.07;;;8.90;99.90;;;;;;5009608;28;20042;-62
2022/01/03 06:20:40;;;;;;;24.23;4.77;;;8.90;99.90;;;;;;5009692;28;20608;-62
2022/01/03 06:23:06;;;;;;;32.00;5.85;;;8.90;99.90;;;;;;5009688;28;20076;-62
2022/01/03 06:25:31;;;;;;;35.75;6.50;;;8.80;99.90;;;;;;5009508;28;20038;-63
2022/01/03 06:27:57;;;;;;;29.63;5.97;;;8.80;99.90;;;;;;5009403;28;20048;-61
2022/01/03 06:30:23;;;;;;;36.05;5.65;;;8.80;99.90;;;;;;5009082;28;20096;-62
2022/01/03 06:32:48;;;;;;;39.90;5.80;;;8.80;99.90;;;;;;5009316;28;20449;-61
2022/01/03 06:35:14;;;;;;;30.85;5.65;;;8.90;99.90;;;;;;5009255;28;20038;-61
2022/01/03 06:37:40;;;;;;;31.95;5.30;;;8.80;99.90;;;;;;5009323;28;20070;-62
2022/01/03 06:40:06;;;;;;;36.45;5.57;;;8.80;99.90;;;;;;5009214;28;20034;-62
2022/01/03 06:42:32;;;;;;;37.20;5.45;;;8.80;99.90;;;;;;5009154;28;20441;-62
2022/01/03 06:44:58;;;;;;;37.42;6.63;;;8.80;99.90;;;;;;5009087;28;20094;-62
2022/01/03 06:47:24;;;;;;;32.22;6.07;;;8.70;99.90;;;;;;5009265;28;20041;-62
2022/01/03 06:49:50;;;;;;;36.78;5.43;;;8.70;99.90;;;;;;5009196;28;20030;-61
2022/01/03 06:52:16;;;;;;;33.63;5.40;;;8.70;99.90;;;;;;5009228;28;20560;-62
2022/01/03 06:54:41;;;;;;;28.42;5.63;;;8.70;99.90;;;;;;5009506;28;20041;-62
2022/01/03 06:57:07;;;;;;;32.15;5.60;;;8.60;99.90;;;;;;5012774;28;20048;-62
2022/01/03 06:59:33;;;;;;;42.83;7.00;;;8.60;99.90;;;;;;5012442;28;20159;-61
2022/01/03 07:01:59;;;;;;;40.80;6.43;;;8.60;99.90;;;;;;5012423;28;20099;-62
2022/01/03 07:04:24;;;;;;;35.63;5.07;;;8.50;99.90;;;;;;5012728;28;20052;-61
2022/01/03 07:06:50;;;;;;;30.17;4.97;;;8.50;99.90;;;;;;5012722;28;20045;-61
2022/01/03 07:09:15;;;;;;;36.22;6.50;;;8.50;99.90;;;;;;5012355;28;20044;-62
2022/01/03 07:11:41;;;;;;;30.65;6.03;;;8.50;99.90;;;;;;5010870;28;20373;-61
2022/01/03 07:19:50;;;;;;;34.50;6.18;;;8.60;99.90;;;;;;5012257;28;20146;-62
2022/01/03 07:22:16;;;;;;;43.30;5.57;;;8.60;99.90;;;;;;5012324;28;20045;-61
2022/01/03 07:24:42;;;;;;;33.83;5.97;;;8.60;99.90;;;;;;5012298;28;20052;-62
2022/01/03 07:27:10;;;;;;;33.60;5.88;;;8.70;99.90;;;;;;5012256;28;20060;-62
2022/01/03 07:29:36;;;;;;;27.00;5.35;;;8.70;99.90;;;;;;5012233;28;20050;-61
2022/01/03 07:32:02;;;;;;;36.90;7.10;;;8.70;99.90;;;;;;5011869;28;20057;-61
2022/01/03 07:34:29;;;;;;;28.60;5.32;;;8.70;99.90;;;;;;5012053;28;20086;-62
2022/01/03 07:36:54;;;;;;;29.98;5.72;;;8.70;99.90;;;;;;5011788;28;20127;-62
2022/01/03 07:39:20;;;;;;;40.88;7.13;;;8.70;99.90;;;;;;5011692;28;20136;-62
2022/01/03 07:41:46;;;;;;;40.78;6.72;;;8.80;99.90;;;;;;5011955;28;20041;-62
2022/01/03 07:44:11;;;;;;;35.67;5.85;;;8.80;99.90;;;;;;5011857;28;20524;-61
2022/01/03 07:46:37;;;;;;;34.33;5.43;;;8.70;99.90;;;;;;5012089;28;20065;-62
2022/01/03 07:49:03;;;;;;;38.25;5.80;;;8.70;99.90;;;;;;5011722;28;20442;-63
2022/01/03 07:51:30;;;;;;;39.92;6.28;;;8.70;99.90;;;;;;5012137;28;20129;-62
2022/01/03 07:53:55;;;;;;;40.28;6.90;;;8.70;99.90;;;;;;5011441;28;20053;-62
2022/01/03 07:56:21;;;;;;;32.47;7.07;;;8.70;99.90;;;;;;5011627;28;20396;-63
2022/01/03 07:58:47;;;;;;;39.90;6.35;;;8.80;99.90;;;;;;5011651;28;20034;-62
2022/01/03 08:01:13;;;;;;;51.47;7.55;;;8.80;99.90;;;;;;5011680;28;20034;-62
2022/01/03 08:03:39;;;;;;;33.67;5.75;;;8.80;99.90;;;;;;5011520;28;20038;-62
2022/01/03 08:06:07;;;;;;;38.20;7.80;;;8.80;99.90;;;;;;5010226;28;20403;-62
2022/01/03 08:08:33;;;;;;;31.13;4.38;;;8.90;99.90;;;;;;5011350;28;20554;-62
2022/01/03 08:10:59;;;;;;;34.55;6.55;;;8.90;99.90;;;;;;5011495;28;20117;-62
2022/01/03 08:13:24;;;;;;;35.28;5.57;;;8.90;99.90;;;;;;5011260;28;20046;-63
2022/01/03 08:15:50;;;;;;;48.78;6.10;;;8.90;99.90;;;;;;5011232;28;20034;-62
2022/01/03 08:18:16;;;;;;;39.95;7.45;;;9.00;99.90;;;;;;5011893;28;20117;-62
2022/01/03 08:20:42;;;;;;;39.45;6.60;;;9.10;99.90;;;;;;5010024;28;20662;-62
2022/01/03 08:23:07;;;;;;;33.15;6.53;;;9.10;99.90;;;;;;5011522;28;20030;-63
2022/01/03 08:25:37;;;;;;;32.17;5.82;;;9.10;99.90;;;;;;5011328;28;20038;-63
2022/01/03 08:28:07;;;;;;;33.47;6.13;;;9.10;99.90;;;;;;5011385;28;20081;-63
2022/01/03 08:30:34;;;;;;;32.30;5.70;;;9.10;99.90;;;;;;5011016;28;20049;-62
2022/01/03 08:33:00;;;;;;;38.28;6.28;;;9.10;99.90;;;;;;5010982;28;20110;-63
2022/01/03 08:35:26;;;;;;;32.72;6.68;;;9.20;99.90;;;;;;5009582;28;20085;-51
2022/01/03 08:37:53;;;;;;;40.65;6.38;;;9.20;99.90;;;;;;5011449;28;20053;-46
2022/01/03 08:40:19;;;;;;;43.92;7.28;;;9.20;99.90;;;;;;5011237;28;20042;-49
2022/01/03 08:42:45;;;;;;;31.27;5.70;;;9.20;99.90;;;;;;5011470;28;20483;-50
2022/01/03 08:45:12;;;;;;;28.98;5.90;;;9.20;99.90;;;;;;5011114;28;20053;-46
2022/01/03 08:47:38;;;;;;;37.30;5.90;;;9.30;99.90;;;;;;5011485;28;20038;-50
2022/01/03 08:50:06;;;;;;;32.92;5.55;;;9.30;99.90;;;;;;5009334;28;20506;-50
2022/01/03 08:52:31;;;;;;;35.95;5.97;;;9.30;99.90;;;;;;5010985;28;20049;-52
2022/01/03 08:54:58;;;;;;;36.08;6.28;;;9.20;99.90;;;;;;5010855;28;20117;-51
2022/01/03 08:57:24;;;;;;;36.25;5.05;;;9.30;99.90;;;;;;5010639;28;20515;-50
2022/01/03 08:59:50;;;;;;;32.97;5.32;;;9.30;99.90;;;;;;5010822;28;20042;-51
2022/01/03 09:02:16;;;;;;;31.13;5.40;;;9.40;99.90;;;;;;5010738;28;20057;-52
2022/01/03 09:04:43;;;;;;;29.95;5.15;;;9.30;99.90;;;;;;5010529;28;20038;-49
2022/01/03 09:07:09;;;;;;;34.35;6.35;;;9.30;99.90;;;;;;5010650;28;20041;-51
2022/01/03 09:09:35;;;;;;;36.83;5.65;;;9.40;99.90;;;;;;5010655;28;20053;-50
2022/01/03 09:12:02;;;;;;;33.30;5.35;;;9.40;99.90;;;;;;5009289;28;20077;-52
2022/01/03 09:14:28;;;;;;;27.35;6.35;;;9.40;99.90;;;;;;5010583;28;20044;-49
2022/01/03 09:16:53;;;;;;;26.60;4.38;;;9.40;99.90;;;;;;5010272;28;20050;-49
2022/01/03 09:19:19;;;;;;;36.67;6.63;;;9.40;99.90;;;;;;5009911;28;20049;-50
2022/01/03 09:21:45;;;;;;;34.25;5.22;;;9.40;99.90;;;;;;5010503;28;20033;-51
2022/01/03 09:24:30;;;;;;;25.60;5.20;;;9.40;99.90;;;;;;5010424;28;20069;-49
2022/01/03 09:29:57;;;;;;;22.88;4.22;;;9.40;99.90;;;;;;5050608;28;20080;-51
2022/01/03 09:32:22;;;;;;;35.50;6.03;;;9.50;99.90;;;;;;5051177;28;20542;-49
2022/01/03 09:34:48;;;;;;;28.92;6.55;;;9.50;99.90;;;;;;5050539;28;20400;-48
2022/01/03 09:37:19;;;;;;;30.88;5.25;;;9.50;99.90;;;;;;5050387;28;20057;-50
2022/01/03 09:39:45;;;;;;;30.73;6.35;;;9.50;99.90;;;;;;5050608;28;20087;-52
2022/01/03 09:42:13;;;;;;;34.97;5.65;;;9.50;99.90;;;;;;5050449;28;20044;-50
2022/01/03 09:44:41;;;;;;;53.40;5.18;;;9.50;99.90;;;;;;5050390;28;20045;-52
2022/01/03 09:47:09;;;;;;;30.00;4.82;;;9.50;99.90;;;;;;5050397;28;20048;-52
2022/01/03 09:49:37;;;;;;;29.50;5.70;;;9.50;99.90;;;;;;5050506;28;20132;-51
2022/01/03 09:52:05;;;;;;;34.15;5.63;;;9.50;99.90;;;;;;5050627;28;20057;-51
2022/01/03 09:54:32;;;;;;;24.02;5.80;;;9.50;99.90;;;;;;5050538;28;20037;-46
2022/01/03 09:57:01;;;;;;;31.00;5.95;;;9.60;99.90;;;;;;5050440;28;20486;-49
2022/01/03 09:59:27;;;;;;;30.30;6.18;;;9.60;99.90;;;;;;5050189;28;20045;-51
2022/01/03 10:01:55;;;;;;;33.40;5.53;;;9.60;99.90;;;;;;5050144;28;20045;-50
2022/01/03 10:04:22;;;;;;;28.13;4.63;;;9.60;99.90;;;;;;5022122;28;20049;-52
2022/01/03 10:06:47;;;;;;;29.13;6.18;;;9.60;99.90;;;;;;5009713;28;20045;-52
2022/01/03 10:09:14;;;;;;;33.03;5.57;;;9.60;99.90;;;;;;5009685;28;20452;-50
2022/01/03 10:11:39;;;;;;;30.75;5.72;;;9.70;99.90;;;;;;5010096;28;20152;-49
2022/01/03 10:14:05;;;;;;;24.83;5.38;;;9.70;99.90;;;;;;5009896;28;20145;-52
2022/01/03 10:16:31;;;;;;;36.25;6.28;;;9.80;99.90;;;;;;5009584;28;20426;-51
2022/01/03 10:18:58;;;;;;;33.35;7.10;;;9.80;99.90;;;;;;5009542;28;20386;-47
2022/01/03 10:21:36;;;;;;;27.88;5.28;;;9.90;99.90;;;;;;5009477;28;20121;-49
2022/01/03 10:24:03;;;;;;;36.97;6.70;;;9.80;99.90;;;;;;5009585;28;20077;-50
2022/01/03 10:26:29;;;;;;;32.75;5.32;;;9.90;99.90;;;;;;5009246;28;20068;-47
2022/01/03 10:29:11;;;;;;;33.00;5.78;;;9.90;99.90;;;;;;5009043;28;20053;-52
2022/01/03 10:31:41;;;;;;;31.52;5.38;;;10.00;99.90;;;;;;5008936;28;20057;-46
2022/01/03 10:34:11;;;;;;;35.15;6.03;;;10.10;99.90;;;;;;5009301;28;20090;-48
2022/01/03 10:36:38;;;;;;;27.33;4.68;;;10.10;99.90;;;;;;5009492;28;20050;-51
2022/01/03 10:39:21;;;;;;;28.00;6.05;;;10.20;99.90;;;;;;5009312;28;20051;-49
2022/01/03 10:41:52;;;;;;;32.35;5.30;;;10.20;99.90;;;;;;5009328;28;20420;-50
2022/01/03 10:44:33;;;;;;;29.08;5.95;;;10.30;99.90;;;;;;5009507;28;20033;-50
2022/01/03 10:46:59;;;;;;;23.70;5.00;;;10.30;99.90;;;;;;5009079;28;20568;-50
2022/01/03 10:49:26;;;;;;;30.85;6.22;;;10.30;99.90;;;;;;5009326;28;20122;-53
2022/01/03 10:52:09;;;;;;;30.33;4.82;;;10.30;99.90;;;;;;5009180;28;20454;-50
2022/01/03 10:54:34;;;;;;;28.75;4.10;;;10.40;99.90;;;;;;5009178;28;20451;-50
2022/01/03 10:57:00;;;;;;;27.48;4.50;;;10.40;99.90;;;;;;5008610;28;20121;-49
2022/01/03 10:59:30;;;;;;;23.23;4.10;;;10.30;99.90;;;;;;5008903;28;20129;-50
2022/01/03 11:01:59;;;;;;;22.90;4.55;;;10.40;99.90;;;;;;5009215;28;20042;-50
2022/01/03 11:13:16;;;;;;;30.60;5.57;;;10.30;99.90;;;;;;5009210;28;20049;-52
2022/01/03 11:15:59;;;;;;;20.73;4.68;;;10.30;99.90;;;;;;5008972;28;20056;-52
2022/01/03 11:18:30;;;;;;;28.73;5.53;;;10.20;99.90;;;;;;5008816;28;20121;-52
2022/01/03 11:21:16;;;;;;;32.15;5.22;;;10.20;99.90;;;;;;5009230;28;20062;-50
2022/01/03 11:24:03;;;;;;;33.45;6.00;;;10.20;99.90;;;;;;5008620;28;20046;-51
2022/01/03 11:26:33;;;;;;;25.10;4.47;;;10.20;99.90;;;;;;5008637;28;20113;-48
2022/01/03 11:29:00;;;;;;;24.85;5.15;;;10.20;99.90;;;;;;5008967;28;20174;-52
2022/01/03 11:31:32;;;;;;;22.55;4.53;;;10.30;99.90;;;;;;5008668;28;20061;-52
2022/01/03 11:33:58;;;;;;;27.88;4.57;;;10.30;99.90;;;;;;5008598;28;20083;-51
2022/01/03 11:36:24;;;;;;;31.52;4.97;;;10.30;99.90;;;;;;5008518;28;20400;-51
2022/01/03 11:38:53;;;;;;;33.00;5.97;;;10.40;99.90;;;;;;5008515;28;20034;-48
2022/01/03 11:41:20;;;;;;;29.90;5.05;;;10.40;99.90;;;;;;5009774;28;20034;-51
2022/01/03 11:43:46;;;;;;;29.48;4.38;;;10.50;99.90;;;;;;5012030;28;20037;-51
2022/01/03 11:46:12;;;;;;;25.02;6.03;;;10.50;99.90;;;;;;5011750;28;20034;-50
2022/01/03 11:48:38;;;;;;;25.38;6.20;;;10.60;99.90;;;;;;5011807;28;20449;-48
2022/01/03 11:51:10;;;;;;;36.50;6.25;;;10.60;99.90;;;;;;5011917;28;20053;-51
2022/01/03 11:53:42;;;;;;;31.90;4.82;;;10.60;99.90;;;;;;5011680;28;20034;-52
2022/01/03 11:56:18;;;;;;;27.67;6.00;;;10.60;99.90;;;;;;5011620;28;20472;-50
2022/01/03 11:59:02;;;;;;;29.50;5.97;;;10.60;99.90;;;;;;5011818;28;20038;-52
2022/01/03 12:04:29;;;;;;;31.77;5.18;;;10.70;99.90;;;;;;5010079;28;20073;-52
2022/01/03 12:07:13;;;;;;;27.98;5.50;;;10.70;99.90;;;;;;5010602;28;20545;-53
2022/01/03 12:09:43;;;;;;;25.52;4.45;;;10.60;99.90;;;;;;5011426;28;20444;-52
2022/01/03 12:12:27;;;;;;;31.02;5.57;;;10.60;99.90;;;;;;5011432;28;20042;-52
2022/01/03 12:14:53;;;;;;;25.38;5.38;;;10.60;99.90;;;;;;5011616;28;20042;-49
2022/01/03 12:17:18;;;;;;;23.80;4.25;;;10.50;99.90;;;;;;5011600;28;20038;-52
2022/01/03 12:19:47;;;;;;;24.27;4.80;;;10.50;99.90;;;;;;5012069;28;20046;-52
2022/01/03 12:22:21;;;;;;;24.90;4.93;;;10.50;99.90;;;;;;5011533;28;20523;-50
2022/01/03 12:24:52;;;;;;;28.25;4.78;;;10.50;99.90;;;;;;5009878;28;20464;-49
2022/01/03 12:27:24;;;;;;;33.78;5.70;;;10.40;99.90;;;;;;5011312;28;20045;-51
2022/01/03 12:29:56;;;;;;;26.35;5.13;;;10.40;99.90;;;;;;5011354;28;20042;-51
2022/01/03 12:32:41;;;;;;;26.83;4.80;;;10.40;99.90;;;;;;5011250;28;20089;-51
2022/01/03 12:35:15;;;;;;;26.60;5.13;;;10.40;99.90;;;;;;5011257;28;20074;-53
2022/01/03 12:37:54;;;;;;;27.08;4.85;;;10.40;99.90;;;;;;5011139;28;20121;-53
2022/01/03 12:40:27;;;;;;;27.23;4.03;;;10.40;99.90;;;;;;5011123;28;20128;-50
2022/01/03 12:43:07;;;;;;;25.42;5.32;;;10.50;99.90;;;;;;5011083;28;20047;-50
2022/01/03 12:45:33;;;;;;;31.38;5.90;;;10.60;99.90;;;;;;5010911;28;20053;-50
2022/01/03 12:48:11;;;;;;;29.75;5.78;;;10.60;99.90;;;;;;5010977;28;20042;-52
2022/01/03 12:50:38;;;;;;;27.73;5.25;;;10.60;99.90;;;;;;5010888;28;20616;-50
2022/01/03 12:53:04;;;;;;;24.45;6.13;;;10.70;99.90;;;;;;5010011;28;20372;-50
2022/01/03 12:55:39;;;;;;;24.10;4.88;;;10.70;99.90;;;;;;5011208;28;20042;-50
2022/01/03 12:58:16;;;;;;;26.38;5.13;;;10.70;99.90;;;;;;5010697;28;20433;-47
2022/01/03 13:00:51;;;;;;;30.73;5.50;;;10.70;99.90;;;;;;5011193;28;20046;-51
2022/01/03 13:03:27;;;;;;;34.53;5.88;;;10.60;99.90;;;;;;5010773;28;20434;-52
2022/01/03 13:06:12;;;;;;;39.00;5.15;;;10.60;99.90;;;;;;5010805;28;20053;-48
2022/01/03 13:08:39;;;;;;;23.52;4.97;;;10.60;99.90;;;;;;5009338;28;20050;-52
2022/01/03 13:11:09;;;;;;;27.58;4.68;;;10.50;99.90;;;;;;5010384;28;20042;-52